sensor_id;sensor_type;location;lat;lon;timestamp;P1;durP1;ratioP1;P2;durP2;ratioP2
54561;SDS011;69047;53.358;-1.486;2023-04-25T00:02:01;3.78;;;1.48;;
54561;SDS011;69047;53.358;-1.486;2023-04-25T00:04:26;3.30;;;1.00;;
54561;SDS011;69047;53.358;-1.486;2023-04-25T00:06:53;3.30;;;1.10;;
54561;SDS011;69047;53.358;-1.486;2023-04-25T00:09:19;4.68;;;1.38;;
54561;SDS011;69047;53.358;-1.486;2023-04-25T00:11:44;5.68;;;1.60;;
54561;SDS011;69047;53.358;-1.486;2023-04-25T00:14:09;5.70;;;1.20;;
54561;SDS011;69047;53.358;-1.486;2023-04-25T00:16:35;2.70;;;1.10;;
54561;SDS011;69047;53.358;-1.486;2023-04-25T00:19:03;3.88;;;1.38;;
54561;SDS011;69047;53.358;-1.486;2023-04-25T00:21:29;4.15;;;1.17;;
54561;SDS011;69047;53.358;-1.486;2023-04-25T00:23:56;3.47;;;1.10;;
54561;SDS011;69047;53.358;-1.486;2023-04-25T00:26:21;4.40;;;1.13;;
54561;SDS011;69047;53.358;-1.486;2023-04-25T00:28:47;3.63;;;1.30;;
54561;SDS011;69047;53.358;-1.486;2023-04-25T00:31:13;4.38;;;0.95;;
54561;SDS011;69047;53.358;-1.486;2023-04-25T00:33:38;6.20;;;1.40;;
54561;SDS011;69047;53.358;-1.486;2023-04-25T00:36:04;6.68;;;1.10;;
54561;SDS011;69047;53.358;-1.486;2023-04-25T00:38:30;4.90;;;1.58;;
54561;SDS011;69047;53.358;-1.486;2023-04-25T00:40:55;5.70;;;1.33;;
54561;SDS011;69047;53.358;-1.486;2023-04-25T00:43:21;4.38;;;1.45;;
54561;SDS011;69047;53.358;-1.486;2023-04-25T00:45:47;2.83;;;1.20;;
54561;SDS011;69047;53.358;-1.486;2023-04-25T00:48:15;2.65;;;0.90;;
54561;SDS011;69047;53.358;-1.486;2023-04-25T00:50:40;5.78;;;1.48;;
54561;SDS011;69047;53.358;-1.486;2023-04-25T00:53:06;3.47;;;0.90;;
54561;SDS011;69047;53.358;-1.486;2023-04-25T00:55:31;2.60;;;1.23;;
54561;SDS011;69047;53.358;-1.486;2023-04-25T00:57:57;3.53;;;1.52;;
54561;SDS011;69047;53.358;-1.486;2023-04-25T01:00:23;2.90;;;1.25;;
54561;SDS011;69047;53.358;-1.486;2023-04-25T01:02:48;6.28;;;1.40;;
54561;SDS011;69047;53.358;-1.486;2023-04-25T01:05:14;4.45;;;1.27;;
54561;SDS011;69047;53.358;-1.486;2023-04-25T01:07:40;3.67;;;1.23;;
54561;SDS011;69047;53.358;-1.486;2023-04-25T01:10:06;4.03;;;1.25;;
54561;SDS011;69047;53.358;-1.486;2023-04-25T01:12:32;2.70;;;1.40;;
54561;SDS011;69047;53.358;-1.486;2023-04-25T01:14:57;5.45;;;1.50;;
54561;SDS011;69047;53.358;-1.486;2023-04-25T01:17:23;3.00;;;1.10;;
54561;SDS011;69047;53.358;-1.486;2023-04-25T01:19:49;4.40;;;1.27;;
54561;SDS011;69047;53.358;-1.486;2023-04-25T01:22:15;3.08;;;1.25;;
54561;SDS011;69047;53.358;-1.486;2023-04-25T01:24:41;4.93;;;1.30;;
54561;SDS011;69047;53.358;-1.486;2023-04-25T01:27:07;6.05;;;1.70;;
54561;SDS011;69047;53.358;-1.486;2023-04-25T01:29:33;6.15;;;1.40;;
54561;SDS011;69047;53.358;-1.486;2023-04-25T01:32:01;1.05;;;0.68;;
54561;SDS011;69047;53.358;-1.486;2023-04-25T01:34:26;4.25;;;1.23;;
54561;SDS011;69047;53.358;-1.486;2023-04-25T01:36:52;4.65;;;1.30;;
54561;SDS011;69047;53.358;-1.486;2023-04-25T01:39:18;4.57;;;1.02;;
54561;SDS011;69047;53.358;-1.486;2023-04-25T01:41:44;1.85;;;0.95;;
54561;SDS011;69047;53.358;-1.486;2023-04-25T01:44:10;2.88;;;1.10;;
54561;SDS011;69047;53.358;-1.486;2023-04-25T01:46:35;2.45;;;1.00;;
54561;SDS011;69047;53.358;-1.486;2023-04-25T01:49:01;3.90;;;1.30;;
54561;SDS011;69047;53.358;-1.486;2023-04-25T01:51:27;3.47;;;1.63;;
54561;SDS011;69047;53.358;-1.486;2023-04-25T01:53:52;2.35;;;0.88;;
54561;SDS011;69047;53.358;-1.486;2023-04-25T01:56:18;5.65;;;1.63;;
54561;SDS011;69047;53.358;-1.486;2023-04-25T01:58:44;1.83;;;0.73;;
54561;SDS011;69047;53.358;-1.486;2023-04-25T02:01:09;5.70;;;1.52;;
54561;SDS011;69047;53.358;-1.486;2023-04-25T02:03:35;2.38;;;1.10;;
54561;SDS011;69047;53.358;-1.486;2023-04-25T02:06:01;3.50;;;1.17;;
54561;SDS011;69047;53.358;-1.486;2023-04-25T02:08:26;3.17;;;1.08;;
54561;SDS011;69047;53.358;-1.486;2023-04-25T02:10:52;4.20;;;1.20;;
54561;SDS011;69047;53.358;-1.486;2023-04-25T02:13:17;4.68;;;1.88;;
54561;SDS011;69047;53.358;-1.486;2023-04-25T02:15:43;5.57;;;1.30;;
54561;SDS011;69047;53.358;-1.486;2023-04-25T02:18:08;3.67;;;1.17;;
54561;SDS011;69047;53.358;-1.486;2023-04-25T02:20:35;2.83;;;1.00;;
54561;SDS011;69047;53.358;-1.486;2023-04-25T02:23:01;3.35;;;1.30;;
54561;SDS011;69047;53.358;-1.486;2023-04-25T02:25:26;6.18;;;1.52;;
54561;SDS011;69047;53.358;-1.486;2023-04-25T02:27:52;6.13;;;1.20;;
54561;SDS011;69047;53.358;-1.486;2023-04-25T02:30:17;3.78;;;1.65;;
54561;SDS011;69047;53.358;-1.486;2023-04-25T02:32:43;2.90;;;1.08;;
54561;SDS011;69047;53.358;-1.486;2023-04-25T02:35:08;2.92;;;1.20;;
54561;SDS011;69047;53.358;-1.486;2023-04-25T02:37:34;2.63;;;1.20;;
54561;SDS011;69047;53.358;-1.486;2023-04-25T02:40:01;4.20;;;0.90;;
54561;SDS011;69047;53.358;-1.486;2023-04-25T02:42:28;2.13;;;0.85;;
54561;SDS011;69047;53.358;-1.486;2023-04-25T02:44:53;2.10;;;1.20;;
54561;SDS011;69047;53.358;-1.486;2023-04-25T02:47:18;4.47;;;1.33;;
54561;SDS011;69047;53.358;-1.486;2023-04-25T02:49:44;3.38;;;1.08;;
54561;SDS011;69047;53.358;-1.486;2023-04-25T02:52:10;5.95;;;1.63;;
54561;SDS011;69047;53.358;-1.486;2023-04-25T02:54:36;2.83;;;1.30;;
54561;SDS011;69047;53.358;-1.486;2023-04-25T02:57:01;3.50;;;1.05;;
54561;SDS011;69047;53.358;-1.486;2023-04-25T02:59:27;1.77;;;0.82;;
54561;SDS011;69047;53.358;-1.486;2023-04-25T03:01:52;2.65;;;1.10;;
54561;SDS011;69047;53.358;-1.486;2023-04-25T03:04:18;2.22;;;0.82;;
54561;SDS011;69047;53.358;-1.486;2023-04-25T03:06:44;2.63;;;1.00;;
54561;SDS011;69047;53.358;-1.486;2023-04-25T03:09:09;3.03;;;1.48;;
54561;SDS011;69047;53.358;-1.486;2023-04-25T03:11:36;1.23;;;0.98;;
54561;SDS011;69047;53.358;-1.486;2023-04-25T03:14:03;2.75;;;0.82;;
54561;SDS011;69047;53.358;-1.486;2023-04-25T03:16:29;2.42;;;0.80;;
54561;SDS011;69047;53.358;-1.486;2023-04-25T03:18:55;2.17;;;0.90;;
54561;SDS011;69047;53.358;-1.486;2023-04-25T03:21:21;2.67;;;0.88;;
54561;SDS011;69047;53.358;-1.486;2023-04-25T03:23:46;6.45;;;1.10;;
54561;SDS011;69047;53.358;-1.486;2023-04-25T03:26:12;3.72;;;1.02;;
54561;SDS011;69047;53.358;-1.486;2023-04-25T03:28:37;3.15;;;0.63;;
54561;SDS011;69047;53.358;-1.486;2023-04-25T03:31:04;4.68;;;1.13;;
54561;SDS011;69047;53.358;-1.486;2023-04-25T03:33:30;3.45;;;1.17;;
54561;SDS011;69047;53.358;-1.486;2023-04-25T03:35:55;2.40;;;0.95;;
54561;SDS011;69047;53.358;-1.486;2023-04-25T03:38:20;1.70;;;0.80;;
54561;SDS011;69047;53.358;-1.486;2023-04-25T03:40:46;3.30;;;0.95;;
54561;SDS011;69047;53.358;-1.486;2023-04-25T03:43:11;1.55;;;0.93;;
54561;SDS011;69047;53.358;-1.486;2023-04-25T03:45:36;3.47;;;1.17;;
54561;SDS011;69047;53.358;-1.486;2023-04-25T03:48:02;3.47;;;0.88;;
54561;SDS011;69047;53.358;-1.486;2023-04-25T03:50:27;1.90;;;0.85;;
54561;SDS011;69047;53.358;-1.486;2023-04-25T03:52:53;2.35;;;0.57;;
54561;SDS011;69047;53.358;-1.486;2023-04-25T03:55:18;5.53;;;0.90;;
54561;SDS011;69047;53.358;-1.486;2023-04-25T03:57:44;4.43;;;1.30;;
54561;SDS011;69047;53.358;-1.486;2023-04-25T04:00:09;2.80;;;0.80;;
54561;SDS011;69047;53.358;-1.486;2023-04-25T04:02:35;4.72;;;1.23;;
54561;SDS011;69047;53.358;-1.486;2023-04-25T04:05:02;1.10;;;0.65;;
54561;SDS011;69047;53.358;-1.486;2023-04-25T04:07:28;2.83;;;0.90;;
54561;SDS011;69047;53.358;-1.486;2023-04-25T04:09:53;4.13;;;1.20;;
54561;SDS011;69047;53.358;-1.486;2023-04-25T04:12:19;3.45;;;1.17;;
54561;SDS011;69047;53.358;-1.486;2023-04-25T04:14:44;3.00;;;1.15;;
54561;SDS011;69047;53.358;-1.486;2023-04-25T04:17:10;3.33;;;0.82;;
54561;SDS011;69047;53.358;-1.486;2023-04-25T04:19:35;1.45;;;0.95;;
54561;SDS011;69047;53.358;-1.486;2023-04-25T04:22:01;2.28;;;0.88;;
54561;SDS011;69047;53.358;-1.486;2023-04-25T04:24:26;2.80;;;0.88;;
54561;SDS011;69047;53.358;-1.486;2023-04-25T04:26:51;4.07;;;0.75;;
54561;SDS011;69047;53.358;-1.486;2023-04-25T04:29:17;3.17;;;1.00;;
54561;SDS011;69047;53.358;-1.486;2023-04-25T04:31:49;3.20;;;1.08;;
54561;SDS011;69047;53.358;-1.486;2023-04-25T04:34:15;3.80;;;1.00;;
54561;SDS011;69047;53.358;-1.486;2023-04-25T04:36:41;6.35;;;0.98;;
54561;SDS011;69047;53.358;-1.486;2023-04-25T04:39:07;3.72;;;0.90;;
54561;SDS011;69047;53.358;-1.486;2023-04-25T04:41:34;2.30;;;0.75;;
54561;SDS011;69047;53.358;-1.486;2023-04-25T04:44:00;2.88;;;0.90;;
54561;SDS011;69047;53.358;-1.486;2023-04-25T04:46:26;1.58;;;0.70;;
54561;SDS011;69047;53.358;-1.486;2023-04-25T04:48:53;6.13;;;1.23;;
54561;SDS011;69047;53.358;-1.486;2023-04-25T04:51:18;4.15;;;0.80;;
54561;SDS011;69047;53.358;-1.486;2023-04-25T04:53:43;2.80;;;0.85;;
54561;SDS011;69047;53.358;-1.486;2023-04-25T04:56:09;16.48;;;5.57;;
54561;SDS011;69047;53.358;-1.486;2023-04-25T04:58:34;18.05;;;5.53;;
54561;SDS011;69047;53.358;-1.486;2023-04-25T05:01:02;19.70;;;7.85;;
54561;SDS011;69047;53.358;-1.486;2023-04-25T05:03:28;15.65;;;6.68;;
54561;SDS011;69047;53.358;-1.486;2023-04-25T05:05:54;13.68;;;5.28;;
54561;SDS011;69047;53.358;-1.486;2023-04-25T05:08:19;18.65;;;6.13;;
54561;SDS011;69047;53.358;-1.486;2023-04-25T05:10:45;18.27;;;5.50;;
54561;SDS011;69047;53.358;-1.486;2023-04-25T05:13:10;16.67;;;4.85;;
54561;SDS011;69047;53.358;-1.486;2023-04-25T05:15:36;12.75;;;4.32;;
54561;SDS011;69047;53.358;-1.486;2023-04-25T05:18:03;14.40;;;4.82;;
54561;SDS011;69047;53.358;-1.486;2023-04-25T05:20:29;11.23;;;3.58;;
54561;SDS011;69047;53.358;-1.486;2023-04-25T05:22:54;12.10;;;3.33;;
54561;SDS011;69047;53.358;-1.486;2023-04-25T05:25:20;9.82;;;2.55;;
54561;SDS011;69047;53.358;-1.486;2023-04-25T05:27:45;8.77;;;3.60;;
54561;SDS011;69047;53.358;-1.486;2023-04-25T05:30:11;8.90;;;2.50;;
54561;SDS011;69047;53.358;-1.486;2023-04-25T05:32:37;8.60;;;2.90;;
54561;SDS011;69047;53.358;-1.486;2023-04-25T05:35:02;9.48;;;2.50;;
54561;SDS011;69047;53.358;-1.486;2023-04-25T05:37:28;7.32;;;2.55;;
54561;SDS011;69047;53.358;-1.486;2023-04-25T05:39:56;7.68;;;2.78;;
54561;SDS011;69047;53.358;-1.486;2023-04-25T05:42:22;8.80;;;2.42;;
54561;SDS011;69047;53.358;-1.486;2023-04-25T05:44:47;6.82;;;2.00;;
54561;SDS011;69047;53.358;-1.486;2023-04-25T05:47:13;10.38;;;2.53;;
54561;SDS011;69047;53.358;-1.486;2023-04-25T05:49:38;7.30;;;1.90;;
54561;SDS011;69047;53.358;-1.486;2023-04-25T05:52:04;5.25;;;2.30;;
54561;SDS011;69047;53.358;-1.486;2023-04-25T05:54:29;5.15;;;1.80;;
54561;SDS011;69047;53.358;-1.486;2023-04-25T05:56:56;4.10;;;1.83;;
54561;SDS011;69047;53.358;-1.486;2023-04-25T05:59:22;6.50;;;1.95;;
54561;SDS011;69047;53.358;-1.486;2023-04-25T06:01:47;3.20;;;1.52;;
54561;SDS011;69047;53.358;-1.486;2023-04-25T06:04:13;5.85;;;1.48;;
54561;SDS011;69047;53.358;-1.486;2023-04-25T06:06:40;3.92;;;1.52;;
54561;SDS011;69047;53.358;-1.486;2023-04-25T06:09:06;5.00;;;1.40;;
54561;SDS011;69047;53.358;-1.486;2023-04-25T06:11:31;6.45;;;2.20;;
54561;SDS011;69047;53.358;-1.486;2023-04-25T06:13:57;3.72;;;1.35;;
54561;SDS011;69047;53.358;-1.486;2023-04-25T06:16:22;5.20;;;1.20;;
54561;SDS011;69047;53.358;-1.486;2023-04-25T06:18:49;8.50;;;1.83;;
54561;SDS011;69047;53.358;-1.486;2023-04-25T06:21:15;3.53;;;1.15;;
54561;SDS011;69047;53.358;-1.486;2023-04-25T06:23:41;5.95;;;1.58;;
54561;SDS011;69047;53.358;-1.486;2023-04-25T06:26:07;3.67;;;1.23;;
54561;SDS011;69047;53.358;-1.486;2023-04-25T06:28:32;5.78;;;1.27;;
54561;SDS011;69047;53.358;-1.486;2023-04-25T06:30:57;4.10;;;1.20;;
54561;SDS011;69047;53.358;-1.486;2023-04-25T06:33:23;3.90;;;1.10;;
54561;SDS011;69047;53.358;-1.486;2023-04-25T06:35:49;4.40;;;1.20;;
54561;SDS011;69047;53.358;-1.486;2023-04-25T06:38:15;3.85;;;1.08;;
54561;SDS011;69047;53.358;-1.486;2023-04-25T06:40:40;5.78;;;1.17;;
54561;SDS011;69047;53.358;-1.486;2023-04-25T06:43:06;3.40;;;1.13;;
54561;SDS011;69047;53.358;-1.486;2023-04-25T06:45:31;2.97;;;1.40;;
54561;SDS011;69047;53.358;-1.486;2023-04-25T06:47:57;6.05;;;1.90;;
54561;SDS011;69047;53.358;-1.486;2023-04-25T06:50:23;5.00;;;1.58;;
54561;SDS011;69047;53.358;-1.486;2023-04-25T06:52:48;77.85;;;44.88;;
54561;SDS011;69047;53.358;-1.486;2023-04-25T06:55:14;59.22;;;34.70;;
54561;SDS011;69047;53.358;-1.486;2023-04-25T06:57:39;46.22;;;25.77;;
54561;SDS011;69047;53.358;-1.486;2023-04-25T07:00:05;40.03;;;22.35;;
54561;SDS011;69047;53.358;-1.486;2023-04-25T07:02:33;35.78;;;18.80;;
54561;SDS011;69047;53.358;-1.486;2023-04-25T07:04:59;30.92;;;16.58;;
54561;SDS011;69047;53.358;-1.486;2023-04-25T07:07:25;27.25;;;14.98;;
54561;SDS011;69047;53.358;-1.486;2023-04-25T07:09:50;24.13;;;13.27;;
54561;SDS011;69047;53.358;-1.486;2023-04-25T07:12:16;27.90;;;13.23;;
54561;SDS011;69047;53.358;-1.486;2023-04-25T07:14:41;18.75;;;11.23;;
54561;SDS011;69047;53.358;-1.486;2023-04-25T07:17:06;41.03;;;25.33;;
54561;SDS011;69047;53.358;-1.486;2023-04-25T07:19:32;43.08;;;26.40;;
54561;SDS011;69047;53.358;-1.486;2023-04-25T07:21:58;35.45;;;21.13;;
54561;SDS011;69047;53.358;-1.486;2023-04-25T07:24:23;36.47;;;19.60;;
54561;SDS011;69047;53.358;-1.486;2023-04-25T07:26:49;30.00;;;18.00;;
54561;SDS011;69047;53.358;-1.486;2023-04-25T07:29:14;30.77;;;18.98;;
54561;SDS011;69047;53.358;-1.486;2023-04-25T07:31:40;28.52;;;17.83;;
54561;SDS011;69047;53.358;-1.486;2023-04-25T07:34:06;26.10;;;15.13;;
54561;SDS011;69047;53.358;-1.486;2023-04-25T07:36:32;28.90;;;15.23;;
54561;SDS011;69047;53.358;-1.486;2023-04-25T07:38:57;23.25;;;12.93;;
54561;SDS011;69047;53.358;-1.486;2023-04-25T07:41:22;20.40;;;12.80;;
54561;SDS011;69047;53.358;-1.486;2023-04-25T07:43:48;19.80;;;12.88;;
54561;SDS011;69047;53.358;-1.486;2023-04-25T07:46:13;21.73;;;11.32;;
54561;SDS011;69047;53.358;-1.486;2023-04-25T07:48:38;20.88;;;11.27;;
54561;SDS011;69047;53.358;-1.486;2023-04-25T07:51:04;16.00;;;9.80;;
54561;SDS011;69047;53.358;-1.486;2023-04-25T07:53:30;17.23;;;9.70;;
54561;SDS011;69047;53.358;-1.486;2023-04-25T07:55:56;17.45;;;9.75;;
54561;SDS011;69047;53.358;-1.486;2023-04-25T07:58:21;13.98;;;8.23;;
54561;SDS011;69047;53.358;-1.486;2023-04-25T08:00:47;14.75;;;8.00;;
54561;SDS011;69047;53.358;-1.486;2023-04-25T08:03:13;14.38;;;7.90;;
54561;SDS011;69047;53.358;-1.486;2023-04-25T08:05:38;14.02;;;6.85;;
54561;SDS011;69047;53.358;-1.486;2023-04-25T08:08:04;14.48;;;6.85;;
54561;SDS011;69047;53.358;-1.486;2023-04-25T08:10:31;15.82;;;7.13;;
54561;SDS011;69047;53.358;-1.486;2023-04-25T08:12:57;14.77;;;5.88;;
54561;SDS011;69047;53.358;-1.486;2023-04-25T08:15:22;10.05;;;5.57;;
54561;SDS011;69047;53.358;-1.486;2023-04-25T08:17:48;9.30;;;5.15;;
54561;SDS011;69047;53.358;-1.486;2023-04-25T08:20:13;14.05;;;5.72;;
54561;SDS011;69047;53.358;-1.486;2023-04-25T08:22:39;12.25;;;5.18;;
54561;SDS011;69047;53.358;-1.486;2023-04-25T08:25:04;8.48;;;4.10;;
54561;SDS011;69047;53.358;-1.486;2023-04-25T08:27:30;10.40;;;4.78;;
54561;SDS011;69047;53.358;-1.486;2023-04-25T08:29:55;8.02;;;4.15;;
54561;SDS011;69047;53.358;-1.486;2023-04-25T08:32:21;11.82;;;4.32;;
54561;SDS011;69047;53.358;-1.486;2023-04-25T08:34:47;6.47;;;3.15;;
54561;SDS011;69047;53.358;-1.486;2023-04-25T08:37:12;9.73;;;3.88;;
54561;SDS011;69047;53.358;-1.486;2023-04-25T08:39:38;5.07;;;3.38;;
54561;SDS011;69047;53.358;-1.486;2023-04-25T08:42:05;6.82;;;3.47;;
54561;SDS011;69047;53.358;-1.486;2023-04-25T08:44:36;5.50;;;2.95;;
54561;SDS011;69047;53.358;-1.486;2023-04-25T08:47:03;11.23;;;3.83;;
54561;SDS011;69047;53.358;-1.486;2023-04-25T08:49:31;6.65;;;2.92;;
54561;SDS011;69047;53.358;-1.486;2023-04-25T08:52:02;6.55;;;2.85;;
54561;SDS011;69047;53.358;-1.486;2023-04-25T08:54:31;7.22;;;2.95;;
54561;SDS011;69047;53.358;-1.486;2023-04-25T08:56:57;7.25;;;2.28;;
54561;SDS011;69047;53.358;-1.486;2023-04-25T08:59:29;5.88;;;2.75;;
54561;SDS011;69047;53.358;-1.486;2023-04-25T09:01:56;6.63;;;2.50;;
54561;SDS011;69047;53.358;-1.486;2023-04-25T09:04:22;5.35;;;2.70;;
54561;SDS011;69047;53.358;-1.486;2023-04-25T09:06:49;7.07;;;3.33;;
54561;SDS011;69047;53.358;-1.486;2023-04-25T09:09:16;5.13;;;2.85;;
54561;SDS011;69047;53.358;-1.486;2023-04-25T09:11:43;4.95;;;2.97;;
54561;SDS011;69047;53.358;-1.486;2023-04-25T09:19:26;3.17;;;1.75;;
54561;SDS011;69047;53.358;-1.486;2023-04-25T09:21:56;3.05;;;1.67;;
54561;SDS011;69047;53.358;-1.486;2023-04-25T09:24:38;4.57;;;1.95;;
54561;SDS011;69047;53.358;-1.486;2023-04-25T09:27:06;3.42;;;2.03;;
54561;SDS011;69047;53.358;-1.486;2023-04-25T09:29:32;3.33;;;1.70;;
54561;SDS011;69047;53.358;-1.486;2023-04-25T09:32:16;6.80;;;1.65;;
54561;SDS011;69047;53.358;-1.486;2023-04-25T09:34:48;5.00;;;1.75;;
54561;SDS011;69047;53.358;-1.486;2023-04-25T09:37:24;2.90;;;1.60;;
54561;SDS011;69047;53.358;-1.486;2023-04-25T09:39:53;5.57;;;1.92;;
54561;SDS011;69047;53.358;-1.486;2023-04-25T09:42:23;5.35;;;1.85;;
54561;SDS011;69047;53.358;-1.486;2023-04-25T09:44:51;10.73;;;2.20;;
54561;SDS011;69047;53.358;-1.486;2023-04-25T09:47:17;9.90;;;1.60;;
54561;SDS011;69047;53.358;-1.486;2023-04-25T09:49:46;9.38;;;2.28;;
54561;SDS011;69047;53.358;-1.486;2023-04-25T09:52:15;5.05;;;1.77;;
54561;SDS011;69047;53.358;-1.486;2023-04-25T09:54:43;13.50;;;2.22;;
54561;SDS011;69047;53.358;-1.486;2023-04-25T09:57:11;7.55;;;1.60;;
54561;SDS011;69047;53.358;-1.486;2023-04-25T09:59:48;3.00;;;1.73;;
54561;SDS011;69047;53.358;-1.486;2023-04-25T10:02:16;6.40;;;1.60;;
54561;SDS011;69047;53.358;-1.486;2023-04-25T10:04:44;8.80;;;1.50;;
54561;SDS011;69047;53.358;-1.486;2023-04-25T10:07:13;6.15;;;1.65;;
54561;SDS011;69047;53.358;-1.486;2023-04-25T10:09:39;4.13;;;1.80;;
54561;SDS011;69047;53.358;-1.486;2023-04-25T10:12:05;5.05;;;1.30;;
54561;SDS011;69047;53.358;-1.486;2023-04-25T10:14:32;3.88;;;1.38;;
54561;SDS011;69047;53.358;-1.486;2023-04-25T10:16:58;3.00;;;1.42;;
54561;SDS011;69047;53.358;-1.486;2023-04-25T10:19:26;7.35;;;1.50;;
54561;SDS011;69047;53.358;-1.486;2023-04-25T10:24:38;3.95;;;1.80;;
54561;SDS011;69047;53.358;-1.486;2023-04-25T10:27:04;6.70;;;1.30;;
54561;SDS011;69047;53.358;-1.486;2023-04-25T10:29:30;4.85;;;1.15;;
54561;SDS011;69047;53.358;-1.486;2023-04-25T10:31:55;4.07;;;1.40;;
54561;SDS011;69047;53.358;-1.486;2023-04-25T10:34:37;4.28;;;1.23;;
54561;SDS011;69047;53.358;-1.486;2023-04-25T10:37:08;2.35;;;0.93;;
54561;SDS011;69047;53.358;-1.486;2023-04-25T10:39:34;4.55;;;1.17;;
54561;SDS011;69047;53.358;-1.486;2023-04-25T10:42:01;4.35;;;1.23;;
54561;SDS011;69047;53.358;-1.486;2023-04-25T10:44:30;4.32;;;1.45;;
54561;SDS011;69047;53.358;-1.486;2023-04-25T10:46:55;3.35;;;1.30;;
54561;SDS011;69047;53.358;-1.486;2023-04-25T10:49:29;10.35;;;1.67;;
54561;SDS011;69047;53.358;-1.486;2023-04-25T10:52:10;6.55;;;1.50;;
54561;SDS011;69047;53.358;-1.486;2023-04-25T10:54:40;2.63;;;1.20;;
54561;SDS011;69047;53.358;-1.486;2023-04-25T11:00:04;2.70;;;1.20;;
54561;SDS011;69047;53.358;-1.486;2023-04-25T11:02:36;3.60;;;1.25;;
54561;SDS011;69047;53.358;-1.486;2023-04-25T11:05:04;5.25;;;1.35;;
54561;SDS011;69047;53.358;-1.486;2023-04-25T11:07:34;3.00;;;1.23;;
54561;SDS011;69047;53.358;-1.486;2023-04-25T11:10:03;7.60;;;1.87;;
54561;SDS011;69047;53.358;-1.486;2023-04-25T11:12:29;3.40;;;1.30;;
54561;SDS011;69047;53.358;-1.486;2023-04-25T11:15:00;9.02;;;1.40;;
54561;SDS011;69047;53.358;-1.486;2023-04-25T11:17:27;8.63;;;1.38;;
54561;SDS011;69047;53.358;-1.486;2023-04-25T11:19:53;3.60;;;1.33;;
54561;SDS011;69047;53.358;-1.486;2023-04-25T11:22:21;5.43;;;1.77;;
54561;SDS011;69047;53.358;-1.486;2023-04-25T11:24:46;2.28;;;1.27;;
54561;SDS011;69047;53.358;-1.486;2023-04-25T11:27:12;4.10;;;1.40;;
54561;SDS011;69047;53.358;-1.486;2023-04-25T11:29:38;8.68;;;1.80;;
54561;SDS011;69047;53.358;-1.486;2023-04-25T11:32:03;2.20;;;1.02;;
54561;SDS011;69047;53.358;-1.486;2023-04-25T11:34:30;7.88;;;1.30;;
54561;SDS011;69047;53.358;-1.486;2023-04-25T11:36:56;3.00;;;1.20;;
54561;SDS011;69047;53.358;-1.486;2023-04-25T11:39:21;3.42;;;1.42;;
54561;SDS011;69047;53.358;-1.486;2023-04-25T11:41:49;6.43;;;1.73;;
54561;SDS011;69047;53.358;-1.486;2023-04-25T11:44:15;3.80;;;1.10;;
54561;SDS011;69047;53.358;-1.486;2023-04-25T11:46:42;6.38;;;1.65;;
54561;SDS011;69047;53.358;-1.486;2023-04-25T11:49:07;7.05;;;1.58;;
54561;SDS011;69047;53.358;-1.486;2023-04-25T11:51:43;2.53;;;1.00;;
54561;SDS011;69047;53.358;-1.486;2023-04-25T11:54:09;2.15;;;1.27;;
54561;SDS011;69047;53.358;-1.486;2023-04-25T11:56:36;4.07;;;1.60;;
54561;SDS011;69047;53.358;-1.486;2023-04-25T11:59:03;5.18;;;1.30;;
54561;SDS011;69047;53.358;-1.486;2023-04-25T12:01:30;4.57;;;1.42;;
54561;SDS011;69047;53.358;-1.486;2023-04-25T12:04:16;4.68;;;1.40;;
54561;SDS011;69047;53.358;-1.486;2023-04-25T12:06:45;6.05;;;1.88;;
54561;SDS011;69047;53.358;-1.486;2023-04-25T12:09:13;4.45;;;1.50;;
54561;SDS011;69047;53.358;-1.486;2023-04-25T12:11:47;1.85;;;1.30;;
54561;SDS011;69047;53.358;-1.486;2023-04-25T12:14:26;3.55;;;1.38;;
54561;SDS011;69047;53.358;-1.486;2023-04-25T12:16:54;4.53;;;1.42;;
54561;SDS011;69047;53.358;-1.486;2023-04-25T12:19:20;8.25;;;1.92;;
54561;SDS011;69047;53.358;-1.486;2023-04-25T12:21:46;7.00;;;1.90;;
54561;SDS011;69047;53.358;-1.486;2023-04-25T12:26:49;4.32;;;1.48;;
54561;SDS011;69047;53.358;-1.486;2023-04-25T12:29:23;3.20;;;1.42;;
54561;SDS011;69047;53.358;-1.486;2023-04-25T12:31:50;1.95;;;1.20;;
54561;SDS011;69047;53.358;-1.486;2023-04-25T12:34:16;5.28;;;1.67;;
54561;SDS011;69047;53.358;-1.486;2023-04-25T12:36:42;4.22;;;1.60;;
54561;SDS011;69047;53.358;-1.486;2023-04-25T12:39:08;10.23;;;1.70;;
54561;SDS011;69047;53.358;-1.486;2023-04-25T12:41:33;3.90;;;1.60;;
54561;SDS011;69047;53.358;-1.486;2023-04-25T12:43:58;4.30;;;1.67;;
54561;SDS011;69047;53.358;-1.486;2023-04-25T12:46:24;4.15;;;1.48;;
54561;SDS011;69047;53.358;-1.486;2023-04-25T12:48:49;2.38;;;1.40;;
54561;SDS011;69047;53.358;-1.486;2023-04-25T12:51:15;4.70;;;1.60;;
54561;SDS011;69047;53.358;-1.486;2023-04-25T12:53:40;1.75;;;1.20;;
54561;SDS011;69047;53.358;-1.486;2023-04-25T12:56:09;7.68;;;1.80;;
54561;SDS011;69047;53.358;-1.486;2023-04-25T12:58:34;4.43;;;1.40;;
54561;SDS011;69047;53.358;-1.486;2023-04-25T13:01:00;2.33;;;1.50;;
54561;SDS011;69047;53.358;-1.486;2023-04-25T13:03:25;3.72;;;1.20;;
54561;SDS011;69047;53.358;-1.486;2023-04-25T13:05:51;4.95;;;1.77;;
54561;SDS011;69047;53.358;-1.486;2023-04-25T13:08:20;2.08;;;1.40;;
54561;SDS011;69047;53.358;-1.486;2023-04-25T13:10:47;4.25;;;1.27;;
54561;SDS011;69047;53.358;-1.486;2023-04-25T13:13:12;4.68;;;1.33;;
54561;SDS011;69047;53.358;-1.486;2023-04-25T13:15:38;2.65;;;1.40;;
54561;SDS011;69047;53.358;-1.486;2023-04-25T13:18:03;2.50;;;1.77;;
54561;SDS011;69047;53.358;-1.486;2023-04-25T13:20:30;2.42;;;1.20;;
54561;SDS011;69047;53.358;-1.486;2023-04-25T13:22:56;3.13;;;1.33;;
54561;SDS011;69047;53.358;-1.486;2023-04-25T13:25:22;2.35;;;1.40;;
54561;SDS011;69047;53.358;-1.486;2023-04-25T13:27:47;5.63;;;1.25;;
54561;SDS011;69047;53.358;-1.486;2023-04-25T13:30:12;4.35;;;1.15;;
54561;SDS011;69047;53.358;-1.486;2023-04-25T13:32:38;4.40;;;1.20;;
54561;SDS011;69047;53.358;-1.486;2023-04-25T13:35:05;2.65;;;1.30;;
54561;SDS011;69047;53.358;-1.486;2023-04-25T13:37:32;1.95;;;1.55;;
54561;SDS011;69047;53.358;-1.486;2023-04-25T13:40:01;4.55;;;1.50;;
54561;SDS011;69047;53.358;-1.486;2023-04-25T13:42:29;1.45;;;1.20;;
54561;SDS011;69047;53.358;-1.486;2023-04-25T13:44:55;3.33;;;1.42;;
54561;SDS011;69047;53.358;-1.486;2023-04-25T13:47:20;3.22;;;1.25;;
54561;SDS011;69047;53.358;-1.486;2023-04-25T13:49:47;2.15;;;1.05;;
54561;SDS011;69047;53.358;-1.486;2023-04-25T13:52:12;5.65;;;1.50;;
54561;SDS011;69047;53.358;-1.486;2023-04-25T13:54:37;3.10;;;1.20;;
54561;SDS011;69047;53.358;-1.486;2023-04-25T13:57:03;5.45;;;1.60;;
54561;SDS011;69047;53.358;-1.486;2023-04-25T13:59:28;2.40;;;1.63;;
54561;SDS011;69047;53.358;-1.486;2023-04-25T14:01:54;6.07;;;1.17;;
54561;SDS011;69047;53.358;-1.486;2023-04-25T14:04:19;2.15;;;1.50;;
54561;SDS011;69047;53.358;-1.486;2023-04-25T14:06:44;2.53;;;1.10;;
54561;SDS011;69047;53.358;-1.486;2023-04-25T14:09:10;4.32;;;1.30;;
54561;SDS011;69047;53.358;-1.486;2023-04-25T14:11:38;4.70;;;1.60;;
54561;SDS011;69047;53.358;-1.486;2023-04-25T14:14:04;2.45;;;1.55;;
54561;SDS011;69047;53.358;-1.486;2023-04-25T14:16:29;2.75;;;1.23;;
54561;SDS011;69047;53.358;-1.486;2023-04-25T14:18:57;2.83;;;1.20;;
54561;SDS011;69047;53.358;-1.486;2023-04-25T14:21:23;2.78;;;1.40;;
54561;SDS011;69047;53.358;-1.486;2023-04-25T14:23:48;2.38;;;1.25;;
54561;SDS011;69047;53.358;-1.486;2023-04-25T14:26:14;3.47;;;1.35;;
54561;SDS011;69047;53.358;-1.486;2023-04-25T14:28:39;2.50;;;1.30;;
54561;SDS011;69047;53.358;-1.486;2023-04-25T14:31:04;3.20;;;1.27;;
54561;SDS011;69047;53.358;-1.486;2023-04-25T14:33:30;3.25;;;1.15;;
54561;SDS011;69047;53.358;-1.486;2023-04-25T14:35:55;1.23;;;1.10;;
54561;SDS011;69047;53.358;-1.486;2023-04-25T14:38:21;2.13;;;1.40;;
54561;SDS011;69047;53.358;-1.486;2023-04-25T14:40:48;2.97;;;1.40;;